sensor_id;sensor_type;location;lat;lon;timestamp;P1;durP1;ratioP1;P2;durP2;ratioP2
286;SDS011;127;48.770;9.212;2023-04-06T00:01:39;19.35;;;10.57;;
286;SDS011;127;48.770;9.212;2023-04-06T00:04:08;20.90;;;10.10;;
286;SDS011;127;48.770;9.212;2023-04-06T00:06:37;15.30;;;9.70;;
286;SDS011;127;48.770;9.212;2023-04-06T00:09:11;24.15;;;9.38;;
286;SDS011;127;48.770;9.212;2023-04-06T00:11:44;13.07;;;9.27;;
286;SDS011;127;48.770;9.212;2023-04-06T00:14:13;20.85;;;10.20;;
286;SDS011;127;48.770;9.212;2023-04-06T00:16:48;23.95;;;10.38;;
286;SDS011;127;48.770;9.212;2023-04-06T00:19:27;16.60;;;11.18;;
286;SDS011;127;48.770;9.212;2023-04-06T00:21:59;18.50;;;10.60;;
286;SDS011;127;48.770;9.212;2023-04-06T00:24:36;18.50;;;10.60;;
286;SDS011;127;48.770;9.212;2023-04-06T00:27:04;23.83;;;10.32;;
286;SDS011;127;48.770;9.212;2023-04-06T00:29:33;16.38;;;10.43;;
286;SDS011;127;48.770;9.212;2023-04-06T00:32:12;20.65;;;10.75;;
286;SDS011;127;48.770;9.212;2023-04-06T00:34:41;21.10;;;10.15;;
286;SDS011;127;48.770;9.212;2023-04-06T00:37:12;25.85;;;11.05;;
286;SDS011;127;48.770;9.212;2023-04-06T00:39:58;18.25;;;9.98;;
286;SDS011;127;48.770;9.212;2023-04-06T00:42:28;17.58;;;9.88;;
286;SDS011;127;48.770;9.212;2023-04-06T00:44:59;20.40;;;10.93;;
286;SDS011;127;48.770;9.212;2023-04-06T00:47:35;23.48;;;10.65;;
286;SDS011;127;48.770;9.212;2023-04-06T00:50:04;19.48;;;10.25;;
286;SDS011;127;48.770;9.212;2023-04-06T00:52:35;18.05;;;10.85;;
286;SDS011;127;48.770;9.212;2023-04-06T00:55:05;20.65;;;10.15;;
286;SDS011;127;48.770;9.212;2023-04-06T00:57:34;25.02;;;9.82;;
286;SDS011;127;48.770;9.212;2023-04-06T01:00:12;17.27;;;9.40;;
286;SDS011;127;48.770;9.212;2023-04-06T01:02:49;22.23;;;10.77;;
286;SDS011;127;48.770;9.212;2023-04-06T01:05:19;19.00;;;10.40;;
286;SDS011;127;48.770;9.212;2023-04-06T01:07:48;16.33;;;9.23;;
286;SDS011;127;48.770;9.212;2023-04-06T01:10:23;17.15;;;9.57;;
286;SDS011;127;48.770;9.212;2023-04-06T01:12:52;21.58;;;10.43;;
286;SDS011;127;48.770;9.212;2023-04-06T01:15:26;18.88;;;9.95;;
286;SDS011;127;48.770;9.212;2023-04-06T01:17:59;19.58;;;10.88;;
286;SDS011;127;48.770;9.212;2023-04-06T01:20:29;20.10;;;10.80;;
286;SDS011;127;48.770;9.212;2023-04-06T01:23:06;20.27;;;10.63;;
286;SDS011;127;48.770;9.212;2023-04-06T01:25:35;17.45;;;9.38;;
286;SDS011;127;48.770;9.212;2023-04-06T01:28:08;23.63;;;10.85;;
286;SDS011;127;48.770;9.212;2023-04-06T01:30:37;16.55;;;10.02;;
286;SDS011;127;48.770;9.212;2023-04-06T01:33:07;23.08;;;11.40;;
286;SDS011;127;48.770;9.212;2023-04-06T01:35:37;18.52;;;10.90;;
286;SDS011;127;48.770;9.212;2023-04-06T01:38:09;18.67;;;10.20;;
286;SDS011;127;48.770;9.212;2023-04-06T01:40:42;22.50;;;11.00;;
286;SDS011;127;48.770;9.212;2023-04-06T01:43:11;22.02;;;12.85;;
286;SDS011;127;48.770;9.212;2023-04-06T01:45:42;20.23;;;10.82;;
286;SDS011;127;48.770;9.212;2023-04-06T01:48:11;22.67;;;12.15;;
286;SDS011;127;48.770;9.212;2023-04-06T01:53:33;23.30;;;11.57;;
286;SDS011;127;48.770;9.212;2023-04-06T01:56:02;20.23;;;10.55;;
286;SDS011;127;48.770;9.212;2023-04-06T01:58:33;18.15;;;10.73;;
286;SDS011;127;48.770;9.212;2023-04-06T02:01:02;20.17;;;10.15;;
286;SDS011;127;48.770;9.212;2023-04-06T02:03:31;23.38;;;11.27;;
286;SDS011;127;48.770;9.212;2023-04-06T02:06:01;19.52;;;11.40;;
286;SDS011;127;48.770;9.212;2023-04-06T02:08:38;22.33;;;11.23;;
286;SDS011;127;48.770;9.212;2023-04-06T02:11:11;25.42;;;11.32;;
286;SDS011;127;48.770;9.212;2023-04-06T02:13:40;23.08;;;10.95;;
286;SDS011;127;48.770;9.212;2023-04-06T02:16:13;20.85;;;11.00;;
286;SDS011;127;48.770;9.212;2023-04-06T02:18:43;16.58;;;10.90;;
286;SDS011;127;48.770;9.212;2023-04-06T02:21:13;19.10;;;9.75;;
286;SDS011;127;48.770;9.212;2023-04-06T02:23:47;18.13;;;10.90;;
286;SDS011;127;48.770;9.212;2023-04-06T02:26:34;18.70;;;9.23;;
286;SDS011;127;48.770;9.212;2023-04-06T02:29:04;17.55;;;10.00;;
286;SDS011;127;48.770;9.212;2023-04-06T02:31:33;19.98;;;10.48;;
286;SDS011;127;48.770;9.212;2023-04-06T02:34:05;21.05;;;11.45;;
286;SDS011;127;48.770;9.212;2023-04-06T02:36:37;22.55;;;11.10;;
286;SDS011;127;48.770;9.212;2023-04-06T02:39:08;20.20;;;10.80;;
286;SDS011;127;48.770;9.212;2023-04-06T02:41:40;18.83;;;10.90;;
286;SDS011;127;48.770;9.212;2023-04-06T02:44:11;24.52;;;11.85;;
286;SDS011;127;48.770;9.212;2023-04-06T02:46:40;21.00;;;11.25;;
286;SDS011;127;48.770;9.212;2023-04-06T02:49:12;19.67;;;11.75;;
286;SDS011;127;48.770;9.212;2023-04-06T02:51:47;25.80;;;12.85;;
286;SDS011;127;48.770;9.212;2023-04-06T02:54:20;20.63;;;11.02;;
286;SDS011;127;48.770;9.212;2023-04-06T02:56:50;16.95;;;10.50;;
286;SDS011;127;48.770;9.212;2023-04-06T02:59:19;22.70;;;12.05;;
286;SDS011;127;48.770;9.212;2023-04-06T03:01:48;23.48;;;10.90;;
286;SDS011;127;48.770;9.212;2023-04-06T03:04:17;25.25;;;12.15;;
286;SDS011;127;48.770;9.212;2023-04-06T03:06:53;26.98;;;12.90;;
286;SDS011;127;48.770;9.212;2023-04-06T03:09:26;22.88;;;11.80;;
286;SDS011;127;48.770;9.212;2023-04-06T03:11:55;25.10;;;11.45;;
286;SDS011;127;48.770;9.212;2023-04-06T03:14:25;19.70;;;10.60;;
286;SDS011;127;48.770;9.212;2023-04-06T03:16:59;19.70;;;11.25;;
286;SDS011;127;48.770;9.212;2023-04-06T03:19:30;20.55;;;12.45;;
286;SDS011;127;48.770;9.212;2023-04-06T03:21:59;21.42;;;11.13;;
286;SDS011;127;48.770;9.212;2023-04-06T03:24:31;20.85;;;11.95;;
286;SDS011;127;48.770;9.212;2023-04-06T03:26:59;23.95;;;11.57;;
286;SDS011;127;48.770;9.212;2023-04-06T03:29:32;24.10;;;11.60;;
286;SDS011;127;48.770;9.212;2023-04-06T03:32:01;22.42;;;11.73;;
286;SDS011;127;48.770;9.212;2023-04-06T03:34:30;20.55;;;11.27;;
286;SDS011;127;48.770;9.212;2023-04-06T03:36:58;22.27;;;12.30;;
286;SDS011;127;48.770;9.212;2023-04-06T03:39:27;20.40;;;11.60;;
286;SDS011;127;48.770;9.212;2023-04-06T03:42:01;22.23;;;12.15;;
286;SDS011;127;48.770;9.212;2023-04-06T03:44:34;21.88;;;11.63;;
286;SDS011;127;48.770;9.212;2023-04-06T03:49:55;24.05;;;11.35;;
286;SDS011;127;48.770;9.212;2023-04-06T03:52:24;21.27;;;11.93;;
286;SDS011;127;48.770;9.212;2023-04-06T03:54:55;26.10;;;12.82;;
286;SDS011;127;48.770;9.212;2023-04-06T03:57:27;22.17;;;11.80;;
286;SDS011;127;48.770;9.212;2023-04-06T03:59:58;26.67;;;11.43;;
286;SDS011;127;48.770;9.212;2023-04-06T04:02:29;28.00;;;12.52;;
286;SDS011;127;48.770;9.212;2023-04-06T04:04:58;29.00;;;12.30;;
286;SDS011;127;48.770;9.212;2023-04-06T04:07:27;21.55;;;10.75;;
286;SDS011;127;48.770;9.212;2023-04-06T04:09:56;24.10;;;10.90;;
286;SDS011;127;48.770;9.212;2023-04-06T04:12:28;23.30;;;11.68;;
286;SDS011;127;48.770;9.212;2023-04-06T04:14:57;25.23;;;12.20;;
286;SDS011;127;48.770;9.212;2023-04-06T04:17:26;18.50;;;10.82;;
286;SDS011;127;48.770;9.212;2023-04-06T04:19:55;23.23;;;11.52;;
286;SDS011;127;48.770;9.212;2023-04-06T04:22:24;21.90;;;11.27;;
286;SDS011;127;48.770;9.212;2023-04-06T04:24:53;22.20;;;9.98;;
286;SDS011;127;48.770;9.212;2023-04-06T04:27:24;21.52;;;9.73;;
286;SDS011;127;48.770;9.212;2023-04-06T04:29:59;21.48;;;11.15;;
286;SDS011;127;48.770;9.212;2023-04-06T04:32:28;24.50;;;10.73;;
286;SDS011;127;48.770;9.212;2023-04-06T04:34:57;22.63;;;10.70;;
286;SDS011;127;48.770;9.212;2023-04-06T04:37:25;24.02;;;11.57;;
286;SDS011;127;48.770;9.212;2023-04-06T04:39:54;21.15;;;11.25;;
286;SDS011;127;48.770;9.212;2023-04-06T04:42:23;22.45;;;10.60;;
286;SDS011;127;48.770;9.212;2023-04-06T04:44:54;18.98;;;10.00;;
286;SDS011;127;48.770;9.212;2023-04-06T04:47:28;27.10;;;10.57;;
286;SDS011;127;48.770;9.212;2023-04-06T04:49:56;22.00;;;10.98;;
286;SDS011;127;48.770;9.212;2023-04-06T04:52:25;19.85;;;10.43;;
286;SDS011;127;48.770;9.212;2023-04-06T04:54:54;19.40;;;11.30;;
286;SDS011;127;48.770;9.212;2023-04-06T04:57:23;20.05;;;11.00;;
286;SDS011;127;48.770;9.212;2023-04-06T04:59:58;20.05;;;9.98;;
286;SDS011;127;48.770;9.212;2023-04-06T05:02:29;31.30;;;11.68;;
286;SDS011;127;48.770;9.212;2023-04-06T05:05:00;27.25;;;10.70;;
286;SDS011;127;48.770;9.212;2023-04-06T05:07:29;21.70;;;11.02;;
286;SDS011;127;48.770;9.212;2023-04-06T05:09:58;20.98;;;10.98;;
286;SDS011;127;48.770;9.212;2023-04-06T05:12:32;18.70;;;10.55;;
286;SDS011;127;48.770;9.212;2023-04-06T05:15:01;22.77;;;11.35;;
286;SDS011;127;48.770;9.212;2023-04-06T05:17:40;19.98;;;11.50;;
286;SDS011;127;48.770;9.212;2023-04-06T05:20:10;19.90;;;10.70;;
286;SDS011;127;48.770;9.212;2023-04-06T05:22:39;22.58;;;11.57;;
286;SDS011;127;48.770;9.212;2023-04-06T05:25:10;20.67;;;11.20;;
286;SDS011;127;48.770;9.212;2023-04-06T05:27:38;20.33;;;10.88;;
286;SDS011;127;48.770;9.212;2023-04-06T05:30:08;19.20;;;11.02;;
286;SDS011;127;48.770;9.212;2023-04-06T05:32:42;20.20;;;9.93;;
286;SDS011;127;48.770;9.212;2023-04-06T05:35:12;20.13;;;10.15;;
286;SDS011;127;48.770;9.212;2023-04-06T05:37:51;26.70;;;10.18;;
286;SDS011;127;48.770;9.212;2023-04-06T05:40:29;25.27;;;11.05;;
286;SDS011;127;48.770;9.212;2023-04-06T05:43:00;27.95;;;11.23;;
286;SDS011;127;48.770;9.212;2023-04-06T05:45:29;22.58;;;11.32;;
286;SDS011;127;48.770;9.212;2023-04-06T05:48:06;22.67;;;12.15;;
286;SDS011;127;48.770;9.212;2023-04-06T05:50:38;28.30;;;12.32;;
286;SDS011;127;48.770;9.212;2023-04-06T05:53:16;27.90;;;12.32;;
286;SDS011;127;48.770;9.212;2023-04-06T05:55:46;20.58;;;12.45;;
286;SDS011;127;48.770;9.212;2023-04-06T05:58:16;29.75;;;13.05;;
286;SDS011;127;48.770;9.212;2023-04-06T06:00:47;24.17;;;12.80;;
286;SDS011;127;48.770;9.212;2023-04-06T06:03:23;18.77;;;12.48;;
286;SDS011;127;48.770;9.212;2023-04-06T06:06:03;23.02;;;12.45;;
286;SDS011;127;48.770;9.212;2023-04-06T06:08:32;21.83;;;13.00;;
286;SDS011;127;48.770;9.212;2023-04-06T06:11:01;25.17;;;13.70;;
286;SDS011;127;48.770;9.212;2023-04-06T06:13:30;26.80;;;14.32;;
286;SDS011;127;48.770;9.212;2023-04-06T06:15:59;25.27;;;12.98;;
286;SDS011;127;48.770;9.212;2023-04-06T06:18:34;21.27;;;12.95;;
286;SDS011;127;48.770;9.212;2023-04-06T06:21:05;30.20;;;13.05;;
286;SDS011;127;48.770;9.212;2023-04-06T06:23:37;24.60;;;12.60;;
286;SDS011;127;48.770;9.212;2023-04-06T06:26:06;26.95;;;12.35;;
286;SDS011;127;48.770;9.212;2023-04-06T06:28:37;24.85;;;12.38;;
286;SDS011;127;48.770;9.212;2023-04-06T06:34:19;26.15;;;13.25;;
286;SDS011;127;48.770;9.212;2023-04-06T06:37:14;28.38;;;13.43;;
286;SDS011;127;48.770;9.212;2023-04-06T06:39:43;21.55;;;11.85;;
286;SDS011;127;48.770;9.212;2023-04-06T06:42:14;23.27;;;13.02;;
286;SDS011;127;48.770;9.212;2023-04-06T06:44:43;26.60;;;12.93;;
286;SDS011;127;48.770;9.212;2023-04-06T06:47:14;25.35;;;13.40;;
286;SDS011;127;48.770;9.212;2023-04-06T06:49:45;23.38;;;12.38;;
286;SDS011;127;48.770;9.212;2023-04-06T06:52:14;20.92;;;13.15;;
286;SDS011;127;48.770;9.212;2023-04-06T06:54:45;21.38;;;13.18;;
286;SDS011;127;48.770;9.212;2023-04-06T06:57:14;24.77;;;12.88;;
286;SDS011;127;48.770;9.212;2023-04-06T06:59:46;24.65;;;13.23;;
286;SDS011;127;48.770;9.212;2023-04-06T07:02:16;22.38;;;11.73;;
286;SDS011;127;48.770;9.212;2023-04-06T07:04:50;24.58;;;13.02;;
286;SDS011;127;48.770;9.212;2023-04-06T07:07:25;19.90;;;12.43;;
286;SDS011;127;48.770;9.212;2023-04-06T07:10:02;19.95;;;11.20;;
286;SDS011;127;48.770;9.212;2023-04-06T07:12:32;25.23;;;12.50;;
286;SDS011;127;48.770;9.212;2023-04-06T07:15:03;21.27;;;11.60;;
286;SDS011;127;48.770;9.212;2023-04-06T07:17:35;19.98;;;11.52;;
286;SDS011;127;48.770;9.212;2023-04-06T07:20:12;21.15;;;11.88;;
286;SDS011;127;48.770;9.212;2023-04-06T07:22:44;28.00;;;11.68;;
286;SDS011;127;48.770;9.212;2023-04-06T07:25:18;27.57;;;12.93;;
286;SDS011;127;48.770;9.212;2023-04-06T07:27:47;21.35;;;13.10;;
286;SDS011;127;48.770;9.212;2023-04-06T07:30:19;21.57;;;12.60;;
286;SDS011;127;48.770;9.212;2023-04-06T07:32:50;21.40;;;11.83;;
286;SDS011;127;48.770;9.212;2023-04-06T07:35:23;21.17;;;11.40;;
286;SDS011;127;48.770;9.212;2023-04-06T07:37:52;25.50;;;12.70;;
286;SDS011;127;48.770;9.212;2023-04-06T07:40:22;21.97;;;13.20;;
286;SDS011;127;48.770;9.212;2023-04-06T07:42:52;22.53;;;11.50;;
286;SDS011;127;48.770;9.212;2023-04-06T07:45:20;26.57;;;12.50;;
286;SDS011;127;48.770;9.212;2023-04-06T07:47:54;18.87;;;11.70;;
286;SDS011;127;48.770;9.212;2023-04-06T07:50:26;23.87;;;12.33;;
286;SDS011;127;48.770;9.212;2023-04-06T07:52:55;24.27;;;11.57;;
286;SDS011;127;48.770;9.212;2023-04-06T07:55:27;20.07;;;12.23;;
286;SDS011;127;48.770;9.212;2023-04-06T07:57:56;26.40;;;11.40;;
286;SDS011;127;48.770;9.212;2023-04-06T08:00:25;20.93;;;11.63;;
286;SDS011;127;48.770;9.212;2023-04-06T08:03:20;23.00;;;13.20;;
286;SDS011;127;48.770;9.212;2023-04-06T08:05:57;23.87;;;12.00;;
286;SDS011;127;48.770;9.212;2023-04-06T08:08:27;28.03;;;13.80;;
286;SDS011;127;48.770;9.212;2023-04-06T08:10:58;31.13;;;13.37;;
286;SDS011;127;48.770;9.212;2023-04-06T08:13:40;24.17;;;13.90;;
286;SDS011;127;48.770;9.212;2023-04-06T08:16:15;22.57;;;13.70;;
286;SDS011;127;48.770;9.212;2023-04-06T08:18:59;26.13;;;12.40;;
286;SDS011;127;48.770;9.212;2023-04-06T08:21:32;26.43;;;13.87;;
286;SDS011;127;48.770;9.212;2023-04-06T08:24:15;27.27;;;13.33;;
286;SDS011;127;48.770;9.212;2023-04-06T08:26:52;25.40;;;13.23;;
286;SDS011;127;48.770;9.212;2023-04-06T08:29:27;23.73;;;13.43;;
286;SDS011;127;48.770;9.212;2023-04-06T08:31:56;23.13;;;13.20;;
286;SDS011;127;48.770;9.212;2023-04-06T08:34:32;28.63;;;14.30;;
286;SDS011;127;48.770;9.212;2023-04-06T08:37:06;24.90;;;13.43;;
286;SDS011;127;48.770;9.212;2023-04-06T08:39:51;22.10;;;12.70;;
286;SDS011;127;48.770;9.212;2023-04-06T08:42:22;27.57;;;14.20;;
286;SDS011;127;48.770;9.212;2023-04-06T08:44:55;24.13;;;13.73;;
286;SDS011;127;48.770;9.212;2023-04-06T08:47:49;20.83;;;12.50;;
286;SDS011;127;48.770;9.212;2023-04-06T08:50:21;27.77;;;11.80;;
286;SDS011;127;48.770;9.212;2023-04-06T08:53:04;23.83;;;12.40;;
286;SDS011;127;48.770;9.212;2023-04-06T08:55:37;28.57;;;11.73;;
286;SDS011;127;48.770;9.212;2023-04-06T08:58:07;22.97;;;12.20;;
286;SDS011;127;48.770;9.212;2023-04-06T09:02:49;16.73;;;11.40;;
286;SDS011;127;48.770;9.212;2023-04-06T09:03:44;21.30;;;11.40;;
286;SDS011;127;48.770;9.212;2023-04-06T09:06:34;23.03;;;11.50;;
286;SDS011;127;48.770;9.212;2023-04-06T09:09:08;25.90;;;11.77;;
286;SDS011;127;48.770;9.212;2023-04-06T09:11:50;20.07;;;11.77;;
286;SDS011;127;48.770;9.212;2023-04-06T09:14:39;18.77;;;11.80;;
286;SDS011;127;48.770;9.212;2023-04-06T09:17:27;20.20;;;12.10;;
286;SDS011;127;48.770;9.212;2023-04-06T09:20:23;19.50;;;10.83;;
286;SDS011;127;48.770;9.212;2023-04-06T09:23:05;25.57;;;12.57;;
286;SDS011;127;48.770;9.212;2023-04-06T09:25:48;18.40;;;10.13;;
286;SDS011;127;48.770;9.212;2023-04-06T09:28:18;19.33;;;10.70;;
286;SDS011;127;48.770;9.212;2023-04-06T09:30:49;17.53;;;11.07;;
286;SDS011;127;48.770;9.212;2023-04-06T09:33:22;19.80;;;10.63;;
286;SDS011;127;48.770;9.212;2023-04-06T09:35:54;17.17;;;10.63;;
286;SDS011;127;48.770;9.212;2023-04-06T09:38:51;19.27;;;11.90;;
286;SDS011;127;48.770;9.212;2023-04-06T09:41:25;28.43;;;11.50;;
286;SDS011;127;48.770;9.212;2023-04-06T09:44:01;20.63;;;10.10;;
286;SDS011;127;48.770;9.212;2023-04-06T09:49:53;19.63;;;11.13;;
286;SDS011;127;48.770;9.212;2023-04-06T09:52:33;17.37;;;10.90;;
286;SDS011;127;48.770;9.212;2023-04-06T09:55:20;14.83;;;10.13;;
286;SDS011;127;48.770;9.212;2023-04-06T09:58:03;13.60;;;9.20;;
286;SDS011;127;48.770;9.212;2023-04-06T10:00:34;14.47;;;10.13;;
286;SDS011;127;48.770;9.212;2023-04-06T10:03:25;19.17;;;12.20;;
286;SDS011;127;48.770;9.212;2023-04-06T10:06:18;16.63;;;10.90;;
286;SDS011;127;48.770;9.212;2023-04-06T10:08:55;14.93;;;11.20;;
286;SDS011;127;48.770;9.212;2023-04-06T10:11:37;18.73;;;10.20;;
286;SDS011;127;48.770;9.212;2023-04-06T10:37:45;12.40;;;8.43;;
286;SDS011;127;48.770;9.212;2023-04-06T10:40:19;10.90;;;7.97;;
286;SDS011;127;48.770;9.212;2023-04-06T10:46:05;12.40;;;8.80;;
286;SDS011;127;48.770;9.212;2023-04-06T10:49:40;16.47;;;9.87;;
286;SDS011;127;48.770;9.212;2023-04-06T10:52:19;15.03;;;8.57;;
286;SDS011;127;48.770;9.212;2023-04-06T10:55:27;14.73;;;8.97;;
286;SDS011;127;48.770;9.212;2023-04-06T10:57:58;13.10;;;8.73;;
286;SDS011;127;48.770;9.212;2023-04-06T11:00:30;14.60;;;8.30;;
286;SDS011;127;48.770;9.212;2023-04-06T11:03:09;12.57;;;8.53;;
286;SDS011;127;48.770;9.212;2023-04-06T11:05:51;11.93;;;8.50;;
286;SDS011;127;48.770;9.212;2023-04-06T11:08:41;12.70;;;7.97;;
286;SDS011;127;48.770;9.212;2023-04-06T11:11:24;18.27;;;8.90;;
286;SDS011;127;48.770;9.212;2023-04-06T11:16:33;13.13;;;8.27;;
286;SDS011;127;48.770;9.212;2023-04-06T11:19:20;11.93;;;7.50;;
286;SDS011;127;48.770;9.212;2023-04-06T11:21:49;10.90;;;7.17;;
286;SDS011;127;48.770;9.212;2023-04-06T11:24:27;14.23;;;8.70;;
286;SDS011;127;48.770;9.212;2023-04-06T11:27:00;13.13;;;8.00;;
286;SDS011;127;48.770;9.212;2023-04-06T11:29:30;12.27;;;7.93;;
286;SDS011;127;48.770;9.212;2023-04-06T11:32:03;16.00;;;8.27;;
286;SDS011;127;48.770;9.212;2023-04-06T11:35:04;13.70;;;8.27;;
286;SDS011;127;48.770;9.212;2023-04-06T11:40:56;12.87;;;8.20;;
286;SDS011;127;48.770;9.212;2023-04-06T11:43:32;12.47;;;8.03;;
286;SDS011;127;48.770;9.212;2023-04-06T11:46:03;13.70;;;8.73;;
286;SDS011;127;48.770;9.212;2023-04-06T11:48:43;13.03;;;8.03;;
286;SDS011;127;48.770;9.212;2023-04-06T11:51:13;14.10;;;7.90;;
286;SDS011;127;48.770;9.212;2023-04-06T11:54:08;13.90;;;7.93;;
286;SDS011;127;48.770;9.212;2023-04-06T11:56:39;12.13;;;8.73;;
286;SDS011;127;48.770;9.212;2023-04-06T12:01:58;11.67;;;9.50;;
286;SDS011;127;48.770;9.212;2023-04-06T12:04:27;11.03;;;8.27;;
286;SDS011;127;48.770;9.212;2023-04-06T12:06:59;13.20;;;8.60;;
286;SDS011;127;48.770;9.212;2023-04-06T12:09:28;15.17;;;7.80;;
286;SDS011;127;48.770;9.212;2023-04-06T12:12:05;11.37;;;7.07;;
286;SDS011;127;48.770;9.212;2023-04-06T12:14:37;13.30;;;7.80;;
286;SDS011;127;48.770;9.212;2023-04-06T12:17:07;17.33;;;7.73;;
286;SDS011;127;48.770;9.212;2023-04-06T12:19:38;13.30;;;7.40;;
286;SDS011;127;48.770;9.212;2023-04-06T12:22:10;11.23;;;7.67;;
286;SDS011;127;48.770;9.212;2023-04-06T12:24:40;9.67;;;7.60;;
286;SDS011;127;48.770;9.212;2023-04-06T12:27:12;15.70;;;9.77;;
286;SDS011;127;48.770;9.212;2023-04-06T12:29:45;16.03;;;7.80;;
286;SDS011;127;48.770;9.212;2023-04-06T12:32:17;11.60;;;7.67;;
286;SDS011;127;48.770;9.212;2023-04-06T12:34:48;12.43;;;7.70;;
286;SDS011;127;48.770;9.212;2023-04-06T12:37:21;13.60;;;8.47;;
286;SDS011;127;48.770;9.212;2023-04-06T12:39:52;11.40;;;6.70;;
286;SDS011;127;48.770;9.212;2023-04-06T12:42:21;14.60;;;8.07;;
286;SDS011;127;48.770;9.212;2023-04-06T12:44:52;9.60;;;7.00;;
286;SDS011;127;48.770;9.212;2023-04-06T12:47:30;11.20;;;6.27;;
286;SDS011;127;48.770;9.212;2023-04-06T12:50:05;10.83;;;6.40;;
286;SDS011;127;48.770;9.212;2023-04-06T12:52:35;10.23;;;7.30;;
286;SDS011;127;48.770;9.212;2023-04-06T12:55:07;11.13;;;7.20;;
286;SDS011;127;48.770;9.212;2023-04-06T12:57:36;15.33;;;7.60;;
286;SDS011;127;48.770;9.212;2023-04-06T13:00:11;11.30;;;6.93;;
286;SDS011;127;48.770;9.212;2023-04-06T13:02:45;11.07;;;7.90;;
286;SDS011;127;48.770;9.212;2023-04-06T13:05:14;10.30;;;7.30;;
286;SDS011;127;48.770;9.212;2023-04-06T13:07:44;12.60;;;8.10;;
286;SDS011;127;48.770;9.212;2023-04-06T13:10:14;10.60;;;7.37;;
286;SDS011;127;48.770;9.212;2023-04-06T13:12:43;10.73;;;7.37;;
286;SDS011;127;48.770;9.212;2023-04-06T13:15:15;14.37;;;8.20;;
286;SDS011;127;48.770;9.212;2023-04-06T13:17:44;13.43;;;8.30;;
286;SDS011;127;48.770;9.212;2023-04-06T13:20:14;15.03;;;7.07;;
286;SDS011;127;48.770;9.212;2023-04-06T13:22:43;10.47;;;7.03;;
286;SDS011;127;48.770;9.212;2023-04-06T13:25:12;11.47;;;6.83;;
286;SDS011;127;48.770;9.212;2023-04-06T13:27:40;12.53;;;7.03;;
286;SDS011;127;48.770;9.212;2023-04-06T13:30:11;12.80;;;6.73;;
286;SDS011;127;48.770;9.212;2023-04-06T13:32:46;9.70;;;6.80;;
286;SDS011;127;48.770;9.212;2023-04-06T13:35:20;12.93;;;6.50;;
286;SDS011;127;48.770;9.212;2023-04-06T13:37:49;10.07;;;6.73;;
286;SDS011;127;48.770;9.212;2023-04-06T13:40:18;12.67;;;6.73;;
286;SDS011;127;48.770;9.212;2023-04-06T13:42:47;16.10;;;6.20;;
286;SDS011;127;48.770;9.212;2023-04-06T13:45:21;9.07;;;6.80;;
286;SDS011;127;48.770;9.212;2023-04-06T13:47:53;11.40;;;7.00;;
286;SDS011;127;48.770;9.212;2023-04-06T13:50:22;13.17;;;6.90;;
286;SDS011;127;48.770;9.212;2023-04-06T13:52:52;12.63;;;7.40;;
286;SDS011;127;48.770;9.212;2023-04-06T13:55:26;12.90;;;7.93;;
286;SDS011;127;48.770;9.212;2023-04-06T13:57:56;15.47;;;7.53;;
286;SDS011;127;48.770;9.212;2023-04-06T14:00:30;13.20;;;6.57;;
286;SDS011;127;48.770;9.212;2023-04-06T14:02:59;17.07;;;6.77;;
286;SDS011;127;48.770;9.212;2023-04-06T14:05:32;11.10;;;8.00;;
286;SDS011;127;48.770;9.212;2023-04-06T14:08:03;11.00;;;6.90;;
286;SDS011;127;48.770;9.212;2023-04-06T14:10:36;14.57;;;7.30;;
286;SDS011;127;48.770;9.212;2023-04-06T14:13:08;9.10;;;6.40;;
286;SDS011;127;48.770;9.212;2023-04-06T14:15:41;11.67;;;7.23;;
286;SDS011;127;48.770;9.212;2023-04-06T14:18:13;12.50;;;7.20;;
286;SDS011;127;48.770;9.212;2023-04-06T14:20:53;11.37;;;7.20;;
286;SDS011;127;48.770;9.212;2023-04-06T14:23:30;12.70;;;7.50;;
286;SDS011;127;48.770;9.212;2023-04-06T14:26:02;11.10;;;7.13;;
286;SDS011;127;48.770;9.212;2023-04-06T14:28:35;11.77;;;7.20;;
286;SDS011;127;48.770;9.212;2023-04-06T14:31:13;13.83;;;6.70;;
286;SDS011;127;48.770;9.212;2023-04-06T14:33:45;12.70;;;7.33;;
286;SDS011;127;48.770;9.212;2023-04-06T14:36:17;11.63;;;8.07;;
286;SDS011;127;48.770;9.212;2023-04-06T14:38:49;17.80;;;7.90;;
286;SDS011;127;48.770;9.212;2023-04-06T14:41:22;16.80;;;8.03;;
286;SDS011;127;48.770;9.212;2023-04-06T14:43:52;14.93;;;7.10;;
286;SDS011;127;48.770;9.212;2023-04-06T14:46:23;15.67;;;8.20;;
286;SDS011;127;48.770;9.212;2023-04-06T14:48:54;17.53;;;7.17;;
286;SDS011;127;48.770;9.212;2023-04-06T14:51:28;11.07;;;7.27;;
286;SDS011;127;48.770;9.212;2023-04-06T14:53:58;16.60;;;7.10;;
286;SDS011;127;48.770;9.212;2023-04-06T14:56:48;10.90;;;6.37;;
286;SDS011;127;48.770;9.212;2023-04-06T14:59:19;14.13;;;6.40;;
286;SDS011;127;48.770;9.212;2023-04-06T15:01:52;11.27;;;6.30;;
286;SDS011;127;48.770;9.212;2023-04-06T15:04:21;12.53;;;7.63;;
286;SDS011;127;48.770;9.212;2023-04-06T15:06:49;12.37;;;7.33;;
286;SDS011;127;48.770;9.212;2023-04-06T15:09:20;14.37;;;7.57;;
286;SDS011;127;48.770;9.212;2023-04-06T15:11:51;11.23;;;7.20;;
286;SDS011;127;48.770;9.212;2023-04-06T15:14:20;12.50;;;7.30;;
286;SDS011;127;48.770;9.212;2023-04-06T15:16:54;14.00;;;7.60;;
286;SDS011;127;48.770;9.212;2023-04-06T15:19:23;11.83;;;6.90;;
286;SDS011;127;48.770;9.212;2023-04-06T15:21:52;17.37;;;8.30;;
286;SDS011;127;48.770;9.212;2023-04-06T15:24:20;13.73;;;7.80;;
286;SDS011;127;48.770;9.212;2023-04-06T15:26:52;11.53;;;6.50;;
286;SDS011;127;48.770;9.212;2023-04-06T15:29:22;13.80;;;6.77;;
286;SDS011;127;48.770;9.212;2023-04-06T15:31:56;16.50;;;7.27;;
286;SDS011;127;48.770;9.212;2023-04-06T15:34:25;17.13;;;7.50;;
286;SDS011;127;48.770;9.212;2023-04-06T15:36:59;11.83;;;7.10;;
286;SDS011;127;48.770;9.212;2023-04-06T15:39:32;10.57;;;6.20;;
286;SDS011;127;48.770;9.212;2023-04-06T15:42:01;12.13;;;6.77;;
286;SDS011;127;48.770;9.212;2023-04-06T15:44:32;9.73;;;6.60;;
286;SDS011;127;48.770;9.212;2023-04-06T15:47:07;13.90;;;7.00;;
286;SDS011;127;48.770;9.212;2023-04-06T15:49:36;16.63;;;8.40;;
286;SDS011;127;48.770;9.212;2023-04-06T15:52:05;12.87;;;7.10;;
286;SDS011;127;48.770;9.212;2023-04-06T15:54:34;13.07;;;7.13;;
286;SDS011;127;48.770;9.212;2023-04-06T15:57:05;13.00;;;6.83;;
286;SDS011;127;48.770;9.212;2023-04-06T15:59:34;15.17;;;7.53;;
286;SDS011;127;48.770;9.212;2023-04-06T16:02:03;12.13;;;6.90;;
286;SDS011;127;48.770;9.212;2023-04-06T16:04:34;13.67;;;7.37;;
286;SDS011;127;48.770;9.212;2023-04-06T16:07:06;17.60;;;7.43;;
286;SDS011;127;48.770;9.212;2023-04-06T16:09:36;18.90;;;8.10;;
286;SDS011;127;48.770;9.212;2023-04-06T16:12:05;18.30;;;8.10;;
286;SDS011;127;48.770;9.212;2023-04-06T16:14:37;12.43;;;7.17;;
286;SDS011;127;48.770;9.212;2023-04-06T16:17:06;14.90;;;7.40;;
286;SDS011;127;48.770;9.212;2023-04-06T16:19:40;14.50;;;7.43;;
286;SDS011;127;48.770;9.212;2023-04-06T16:22:09;13.70;;;8.10;;
286;SDS011;127;48.770;9.212;2023-04-06T16:24:38;14.23;;;8.50;;
286;SDS011;127;48.770;9.212;2023-04-06T16:27:11;13.93;;;8.00;;
286;SDS011;127;48.770;9.212;2023-04-06T16:29:40;11.10;;;6.63;;
286;SDS011;127;48.770;9.212;2023-04-06T16:32:08;17.27;;;7.50;;
286;SDS011;127;48.770;9.212;2023-04-06T16:34:41;13.90;;;7.40;;
286;SDS011;127;48.770;9.212;2023-04-06T16:37:11;16.60;;;8.10;;
286;SDS011;127;48.770;9.212;2023-04-06T16:39:42;13.53;;;7.70;;
286;SDS011;127;48.770;9.212;2023-04-06T16:42:12;13.90;;;6.90;;
286;SDS011;127;48.770;9.212;2023-04-06T16:44:44;15.87;;;7.17;;
286;SDS011;127;48.770;9.212;2023-04-06T16:47:19;16.80;;;8.07;;